VEGT

Details ICAO VEGT (GAU)
Name GUWAHATI INTL
Region India
Timezone Asia/Kolkata (UTC+5.5)
Plans Departing 34
Arriving 35
Stats Elevation 162 ft / 49 m (AMSL)
Location 26.106091° 91.585940°
Runways 1
Magnetic Variation 0.159° W
Sunrise 2017-12-14 00:34:00 UTC / 2017-12-14 06:04:00 Local
Sunset 2017-12-14 11:05:14 UTC / 2017-12-14 16:35:14 Local
Advertisement - Login to hide

Runways

ID Width Length Bearing (true) Bearing (mag) Surface Threshold Offset Overrun Length
02 150 ft / 46 m 9,028 ft / 2,752 m 22.66° 22.82° Asphalt 0 ft / 0 m 0 ft / 0 m
20 150 ft / 46 m 9,028 ft / 2,752 m 202.66° 202.82° Asphalt 0 ft / 0 m 0 ft / 0 m

Approach Navaids

Runway Type Ident Frequency Range Bearing (true) Bearing (mag) Slope Elevation
02 Localiser IGHT 110.30 MHz 18 nm / 33 km 21.43° 21.59° - 162 ft / 49 m (AMSL)
02 Glidescope IGHT 110.30 MHz 10 nm / 19 km 22.66° 22.82° 3.25° 162 ft / 49 m (AMSL)
02 DME IGHT 110.30 MHz 18 nm / 33 km - - - 162 ft / 49 m (AMSL)

Map

Weather


0- 5 10 15 20 25 30 35+ Temperature / ° C

Clouds and Precipitation
Forecast for 2017-12-14 12:00 UTC. Updated an hour ago

Ground ~20,000 ft ~40,000 ft Winds

METAR

VEGT 141030Z 07002KT 1500 HZ FEW016 25/19 Q1013 NOSIG

TAF

Not found

Frequencies

Recorded 126.60 MHz ATIS
Tower 118.75 MHz TWR
Ground 121.90 MHz GND
Approach 123.30 MHz APP
Warning: Do not use this data for real-world aviation or navigation. No guarantee of current accuracy is given.